Time;durP1;ratioP1;P1;durP2;ratioP2;P2;SDS_P1;SDS_P2;PMS_P1;PMS_P2;Temp;Humidity;BMP_temperature;BMP_pressure;BME280_temperature;BME280_humidity;BME280_pressure;Samples;Min_cycle;Max_cycle;Signal;HPM_P1;HPM_P2
2021/12/12 00:01:15;;;;;;;20.40;9.20;;;;;;;;;;4464532;32;20277;-57
2021/12/12 00:03:48;;;;;;;11.93;6.67;;;;;;;;;;4464698;32;20749;-58
2021/12/12 00:06:32;;;;;;;12.73;6.80;;;;;;;;;;4464989;32;20216;-57
2021/12/12 00:09:09;;;;;;;80.33;43.70;;;;;;;;;;4464917;32;20757;-58
2021/12/12 00:11:36;;;;;;;74.27;44.83;;;;;;;;;;4464376;32;20238;-58
2021/12/12 00:14:04;;;;;;;89.47;48.43;;;;;;;;;;4462743;32;20347;-57
2021/12/12 00:16:30;;;;;;;63.73;34.03;;;;;;;;;;4463537;32;20633;-57
2021/12/12 00:18:56;;;;;;;65.67;33.87;;;;;;;;;;4463307;32;20216;-57
2021/12/12 00:21:24;;;;;;;64.27;37.23;;;;;;;;;;4463444;32;20673;-57
2021/12/12 00:23:49;;;;;;;74.17;40.97;;;;;;;;;;4463911;32;20208;-57
2021/12/12 00:26:15;;;;;;;89.63;43.77;;;;;;;;;;4463391;32;20279;-57
2021/12/12 00:28:41;;;;;;;77.03;45.70;;;;;;;;;;4463958;32;20530;-57
2021/12/12 00:31:10;;;;;;;73.00;42.63;;;;;;;;;;4463751;32;20262;-57
2021/12/12 00:33:39;;;;;;;52.50;31.23;;;;;;;;;;4464609;32;20266;-57
2021/12/12 00:36:05;;;;;;;48.93;28.93;;;;;;;;;;4449246;32;20292;-57
2021/12/12 00:38:33;;;;;;;50.63;29.50;;;;;;;;;;4448994;32;20299;-57
2021/12/12 00:41:04;;;;;;;66.13;34.20;;;;;;;;;;4448413;32;20236;-57
2021/12/12 00:43:37;;;;;;;70.27;32.70;;;;;;;;;;4448559;32;20213;-58
2021/12/12 00:46:07;;;;;;;48.97;27.60;;;;;;;;;;4448893;32;20220;-58
2021/12/12 00:48:34;;;;;;;55.83;28.80;;;;;;;;;;4448655;32;20208;-58
2021/12/12 00:51:03;;;;;;;46.17;28.03;;;;;;;;;;4448731;32;20286;-57
2021/12/12 00:53:30;;;;;;;51.27;29.60;;;;;;;;;;4448868;32;20332;-60
2021/12/12 00:55:56;;;;;;;46.80;27.07;;;;;;;;;;4448078;32;20675;-58
2021/12/12 00:58:23;;;;;;;62.20;25.23;;;;;;;;;;4448373;32;20681;-57
2021/12/12 01:00:55;;;;;;;47.10;25.97;;;;;;;;;;4448143;32;20231;-57
2021/12/12 01:03:29;;;;;;;43.30;24.47;;;;;;;;;;4448310;32;20248;-58
2021/12/12 01:05:56;;;;;;;61.70;29.57;;;;;;;;;;4448432;32;20808;-58
2021/12/12 01:08:23;;;;;;;50.87;28.17;;;;;;;;;;4461975;32;20342;-57
2021/12/12 01:10:53;;;;;;;59.47;31.27;;;;;;;;;;4463736;32;20298;-59
2021/12/12 01:13:20;;;;;;;59.20;29.67;;;;;;;;;;4464110;32;20585;-58
2021/12/12 01:16:10;;;;;;;75.93;33.73;;;;;;;;;;4463608;32;20208;-58
2021/12/12 01:18:40;;;;;;;57.07;30.83;;;;;;;;;;4463756;32;20350;-58
2021/12/12 01:21:14;;;;;;;60.20;31.37;;;;;;;;;;4464068;32;20675;-58
2021/12/12 01:23:45;;;;;;;57.07;28.80;;;;;;;;;;4462374;32;20231;-59
2021/12/12 01:26:11;;;;;;;60.30;29.10;;;;;;;;;;4462402;32;20232;-58
2021/12/12 01:28:39;;;;;;;49.37;24.70;;;;;;;;;;4463343;32;20274;-57
2021/12/12 01:31:08;;;;;;;42.20;22.67;;;;;;;;;;4463891;32;20671;-58
2021/12/12 01:33:36;;;;;;;38.27;21.70;;;;;;;;;;4467114;32;20267;-57
2021/12/12 01:36:29;;;;;;;46.73;20.47;;;;;;;;;;4450840;32;20262;-57
2021/12/12 01:38:56;;;;;;;38.30;18.33;;;;;;;;;;4449924;32;20268;-57
2021/12/12 01:41:39;;;;;;;31.67;18.07;;;;;;;;;;4451146;32;20756;-57
2021/12/12 01:44:21;;;;;;;28.27;17.37;;;;;;;;;;4451123;32;20235;-57
2021/12/12 01:47:21;;;;;;;30.20;17.07;;;;;;;;;;4451203;32;20654;-57
2021/12/12 01:49:51;;;;;;;30.87;17.90;;;;;;;;;;4451412;32;20192;-58
2021/12/12 01:52:21;;;;;;;34.93;18.07;;;;;;;;;;4451023;32;20227;-59
2021/12/12 01:54:49;;;;;;;32.10;17.27;;;;;;;;;;4450716;32;20272;-57
2021/12/12 01:57:23;;;;;;;31.67;18.73;;;;;;;;;;4450870;32;20674;-58
2021/12/12 01:59:49;;;;;;;32.53;18.63;;;;;;;;;;4450737;32;20205;-58
2021/12/12 02:02:26;;;;;;;33.73;18.50;;;;;;;;;;4450613;32;20303;-58
2021/12/12 02:04:55;;;;;;;46.83;21.43;;;;;;;;;;4450915;32;20860;-58
2021/12/12 02:07:26;;;;;;;21.67;12.27;;;;;;;;;;4458111;32;20235;-59
2021/12/12 02:09:53;;;;;;;20.90;11.43;;;;;;;;;;4466469;32;20306;-57
2021/12/12 02:12:22;;;;;;;11.73;8.37;;;;;;;;;;4466558;32;20231;-58
2021/12/12 02:14:49;;;;;;;21.67;10.87;;;;;;;;;;4465946;32;20196;-57
2021/12/12 02:17:26;;;;;;;18.27;9.47;;;;;;;;;;4466438;32;20227;-57
2021/12/12 02:20:13;;;;;;;16.13;9.10;;;;;;;;;;4466196;32;20320;-57
2021/12/12 02:35:59;;;;;;;16.73;8.27;;;;;;;;;;4464245;32;20250;-56
2021/12/12 02:38:30;;;;;;;17.67;9.50;;;;;;;;;;4465739;32;20235;-58
2021/12/12 02:41:03;;;;;;;29.23;13.70;;;;;;;;;;4465968;32;20712;-58
2021/12/12 02:43:33;;;;;;;17.90;9.47;;;;;;;;;;4463637;32;20322;-57
2021/12/12 02:45:59;;;;;;;14.20;8.30;;;;;;;;;;4465640;32;20239;-57
2021/12/12 02:48:27;;;;;;;14.43;7.93;;;;;;;;;;4465582;32;20757;-58
2021/12/12 02:50:56;;;;;;;13.43;7.27;;;;;;;;;;4465382;32;20242;-57
2021/12/12 02:53:32;;;;;;;19.60;9.27;;;;;;;;;;4465890;32;20753;-57
2021/12/12 02:56:11;;;;;;;16.33;8.30;;;;;;;;;;4465526;32;20243;-58
2021/12/12 02:58:37;;;;;;;11.57;5.97;;;;;;;;;;4465676;32;20224;-57
2021/12/12 03:01:06;;;;;;;16.63;6.10;;;;;;;;;;4464415;32;20601;-57
2021/12/12 03:03:36;;;;;;;12.63;7.40;;;;;;;;;;4465667;32;20313;-57
2021/12/12 03:06:07;;;;;;;16.77;9.13;;;;;;;;;;4465510;32;20664;-57
2021/12/12 03:08:33;;;;;;;16.13;8.10;;;;;;;;;;4464970;32;20208;-57
2021/12/12 03:10:59;;;;;;;16.70;8.20;;;;;;;;;;4465268;32;20316;-57
2021/12/12 03:13:26;;;;;;;13.73;8.37;;;;;;;;;;4465158;32;20654;-58
2021/12/12 03:15:53;;;;;;;21.30;11.43;;;;;;;;;;4465396;32;20267;-58
2021/12/12 03:18:24;;;;;;;17.73;10.40;;;;;;;;;;4463919;32;20236;-57
2021/12/12 03:20:54;;;;;;;19.07;11.77;;;;;;;;;;4465345;32;20252;-57
2021/12/12 03:23:33;;;;;;;24.03;11.27;;;;;;;;;;4464871;32;20257;-57
2021/12/12 03:26:03;;;;;;;14.40;8.00;;;;;;;;;;4465071;32;20276;-58
2021/12/12 03:28:31;;;;;;;18.87;9.10;;;;;;;;;;4464741;32;20334;-58
2021/12/12 03:31:00;;;;;;;13.40;7.60;;;;;;;;;;4460169;32;20698;-57
2021/12/12 03:33:28;;;;;;;9.57;6.00;;;;;;;;;;4458088;32;20208;-57
2021/12/12 03:35:54;;;;;;;8.73;5.90;;;;;;;;;;4464633;32;20234;-58
2021/12/12 03:38:23;;;;;;;6.87;4.43;;;;;;;;;;4464741;32;20280;-57
2021/12/12 03:40:49;;;;;;;5.50;3.57;;;;;;;;;;4463298;32;20259;-58
2021/12/12 03:43:15;;;;;;;9.27;3.17;;;;;;;;;;4464514;32;20247;-58
2021/12/12 03:45:43;;;;;;;4.03;2.70;;;;;;;;;;4465149;32;20728;-58
2021/12/12 03:48:12;;;;;;;7.23;3.60;;;;;;;;;;4464400;32;20271;-58
2021/12/12 03:50:41;;;;;;;4.53;3.40;;;;;;;;;;4463691;32;20243;-57
2021/12/12 03:53:08;;;;;;;5.70;3.23;;;;;;;;;;4464384;32;20200;-57
2021/12/12 03:55:34;;;;;;;7.00;3.13;;;;;;;;;;4464569;32;20217;-58
2021/12/12 03:58:02;;;;;;;5.20;3.80;;;;;;;;;;4464487;32;20235;-57
2021/12/12 04:00:41;;;;;;;4.97;3.53;;;;;;;;;;4463399;32;20262;-58
2021/12/12 04:03:07;;;;;;;5.70;2.90;;;;;;;;;;4464479;32;20355;-57
2021/12/12 04:05:33;;;;;;;5.17;2.67;;;;;;;;;;4464130;32;20344;-58
2021/12/12 04:07:59;;;;;;;5.07;3.20;;;;;;;;;;4463955;32;20256;-58
2021/12/12 04:10:25;;;;;;;5.03;3.00;;;;;;;;;;4464498;32;20275;-59
2021/12/12 04:12:52;;;;;;;5.47;3.20;;;;;;;;;;4464287;32;20236;-57
2021/12/12 04:15:18;;;;;;;7.87;3.80;;;;;;;;;;4463003;32;20255;-56
2021/12/12 04:17:45;;;;;;;5.20;3.57;;;;;;;;;;4464391;32;20282;-58
2021/12/12 04:20:21;;;;;;;5.63;3.80;;;;;;;;;;4464288;32;20212;-59
2021/12/12 04:22:47;;;;;;;6.17;3.03;;;;;;;;;;4464165;32;20235;-57
2021/12/12 04:25:14;;;;;;;5.10;3.47;;;;;;;;;;4464213;32;20275;-58
2021/12/12 04:27:40;;;;;;;7.00;4.10;;;;;;;;;;4462801;32;20262;-58
2021/12/12 04:30:08;;;;;;;5.03;3.03;;;;;;;;;;4464025;32;20283;-57
2021/12/12 04:32:34;;;;;;;4.83;2.80;;;;;;;;;;4463940;32;20240;-57
2021/12/12 04:35:16;;;;;;;4.47;2.17;;;;;;;;;;4463830;32;20294;-58
2021/12/12 04:37:44;;;;;;;3.43;2.30;;;;;;;;;;4462843;32;20378;-57
2021/12/12 04:40:15;;;;;;;4.00;3.00;;;;;;;;;;4462135;32;20283;-58
2021/12/12 04:42:41;;;;;;;3.77;2.50;;;;;;;;;;4462875;32;20290;-58
2021/12/12 04:45:16;;;;;;;6.67;3.17;;;;;;;;;;4463958;32;20279;-56
2021/12/12 04:50:36;;;;;;;5.07;3.30;;;;;;;;;;4464084;32;20276;-57
2021/12/12 04:53:18;;;;;;;5.40;3.77;;;;;;;;;;4463633;32;20275;-57
2021/12/12 04:56:02;;;;;;;7.17;3.20;;;;;;;;;;4464083;32;20296;-57
2021/12/12 04:58:58;;;;;;;3.53;2.40;;;;;;;;;;4463545;32;20311;-57
2021/12/12 05:02:04;;;;;;;3.10;2.30;;;;;;;;;;4463698;32;20296;-58
2021/12/12 05:04:48;;;;;;;3.37;2.47;;;;;;;;;;4463760;32;20578;-57
2021/12/12 05:07:20;;;;;;;4.00;2.23;;;;;;;;;;4463048;32;20259;-57
2021/12/12 05:10:12;;;;;;;3.43;2.47;;;;;;;;;;4462939;32;20200;-57
2021/12/12 05:12:46;;;;;;;4.00;3.23;;;;;;;;;;4463968;32;20308;-57
2021/12/12 05:15:43;;;;;;;4.07;2.50;;;;;;;;;;4463672;32;20335;-59
2021/12/12 05:18:19;;;;;;;3.57;2.73;;;;;;;;;;4447095;32;20590;-57
2021/12/12 05:20:52;;;;;;;9.57;3.53;;;;;;;;;;4462435;32;20235;-57
2021/12/12 05:23:21;;;;;;;7.00;2.87;;;;;;;;;;4463296;32;20579;-57
2021/12/12 05:25:59;;;;;;;3.13;2.13;;;;;;;;;;4463762;32;20215;-57
2021/12/12 05:28:35;;;;;;;4.37;2.50;;;;;;;;;;4463600;32;20868;-57
2021/12/12 05:31:04;;;;;;;4.87;3.00;;;;;;;;;;4462168;32;20381;-57
2021/12/12 05:33:31;;;;;;;5.40;3.37;;;;;;;;;;4463531;32;20268;-57
2021/12/12 05:35:57;;;;;;;3.53;2.50;;;;;;;;;;4447982;32;20306;-57
2021/12/12 05:38:26;;;;;;;4.90;2.40;;;;;;;;;;4448999;32;20583;-58
2021/12/12 05:40:52;;;;;;;6.03;3.30;;;;;;;;;;4462403;32;20307;-57
2021/12/12 05:43:18;;;;;;;7.83;3.67;;;;;;;;;;4463149;32;20225;-57
2021/12/12 05:45:45;;;;;;;6.63;4.27;;;;;;;;;;4463601;32;20352;-56
2021/12/12 05:48:12;;;;;;;7.73;5.23;;;;;;;;;;4462056;32;20239;-58
2021/12/12 05:50:39;;;;;;;8.63;4.60;;;;;;;;;;4463569;32;20227;-56
2021/12/12 05:53:06;;;;;;;11.03;6.10;;;;;;;;;;4462986;32;20208;-57
2021/12/12 05:55:34;;;;;;;11.03;6.27;;;;;;;;;;4463696;32;20313;-56
2021/12/12 05:58:04;;;;;;;10.70;6.30;;;;;;;;;;4463344;32;20273;-56
2021/12/12 06:00:38;;;;;;;9.50;6.13;;;;;;;;;;4463675;32;20655;-57
2021/12/12 06:03:09;;;;;;;11.43;5.77;;;;;;;;;;4462985;32;20233;-58
2021/12/12 06:05:35;;;;;;;11.23;6.77;;;;;;;;;;4463627;32;20208;-57
2021/12/12 06:08:01;;;;;;;14.27;8.60;;;;;;;;;;4462934;32;20273;-57
2021/12/12 06:10:27;;;;;;;18.43;10.80;;;;;;;;;;4463738;32;20275;-57
2021/12/12 06:12:54;;;;;;;26.17;12.90;;;;;;;;;;4462080;32;20676;-57
2021/12/12 06:15:22;;;;;;;19.87;11.57;;;;;;;;;;4461899;32;20600;-57
2021/12/12 06:17:50;;;;;;;15.53;9.37;;;;;;;;;;4463089;32;20240;-57
2021/12/12 06:20:17;;;;;;;19.50;9.40;;;;;;;;;;4465954;32;20211;-57
2021/12/12 06:22:43;;;;;;;17.57;11.87;;;;;;;;;;4465878;32;20301;-57
2021/12/12 06:25:10;;;;;;;17.00;9.77;;;;;;;;;;4463949;32;20303;-58
2021/12/12 06:27:37;;;;;;;16.73;7.97;;;;;;;;;;4464091;32;20220;-57
2021/12/12 06:30:05;;;;;;;19.23;9.77;;;;;;;;;;4464209;32;20298;-57
2021/12/12 06:32:31;;;;;;;17.23;8.67;;;;;;;;;;4463407;32;20573;-57
2021/12/12 06:34:58;;;;;;;18.47;10.30;;;;;;;;;;4464805;32;20329;-57
2021/12/12 06:37:24;;;;;;;20.87;12.13;;;;;;;;;;4462877;32;20236;-57
2021/12/12 06:39:51;;;;;;;16.90;8.90;;;;;;;;;;4463591;32;20283;-57
2021/12/12 06:42:17;;;;;;;9.20;6.23;;;;;;;;;;4462590;32;20244;-57
2021/12/12 06:44:43;;;;;;;8.67;5.03;;;;;;;;;;4463657;32;20321;-59
2021/12/12 06:47:10;;;;;;;10.67;5.80;;;;;;;;;;4463806;32;20364;-57
2021/12/12 06:49:37;;;;;;;11.03;5.77;;;;;;;;;;4463500;32;20255;-58
2021/12/12 06:52:06;;;;;;;11.13;6.87;;;;;;;;;;4462141;32;20248;-59
2021/12/12 06:54:32;;;;;;;15.33;7.63;;;;;;;;;;4463738;32;20806;-57
2021/12/12 06:57:01;;;;;;;19.83;9.40;;;;;;;;;;4463480;32;20236;-57
2021/12/12 06:59:30;;;;;;;14.40;8.13;;;;;;;;;;4463204;32;20220;-56
2021/12/12 07:01:56;;;;;;;8.03;5.97;;;;;;;;;;4463118;32;20295;-57
2021/12/12 07:04:22;;;;;;;11.10;6.83;;;;;;;;;;4465278;32;20378;-56
2021/12/12 07:06:52;;;;;;;9.10;4.47;;;;;;;;;;4465320;32;20371;-57
2021/12/12 07:09:18;;;;;;;6.17;4.53;;;;;;;;;;4465457;32;20403;-57
2021/12/12 07:11:45;;;;;;;9.17;5.87;;;;;;;;;;4465223;32;20817;-57
2021/12/12 07:14:13;;;;;;;16.37;7.97;;;;;;;;;;4464869;32;20216;-57
2021/12/12 07:16:39;;;;;;;16.73;8.97;;;;;;;;;;4465216;32;20233;-57
2021/12/12 07:19:05;;;;;;;13.63;7.73;;;;;;;;;;4464922;32;20355;-56
2021/12/12 07:21:31;;;;;;;8.57;4.43;;;;;;;;;;4464777;32;20224;-57
2021/12/12 07:24:01;;;;;;;4.37;3.17;;;;;;;;;;4463430;32;20311;-58
2021/12/12 07:26:28;;;;;;;14.37;5.83;;;;;;;;;;4465003;32;20249;-57
2021/12/12 07:28:55;;;;;;;10.73;6.73;;;;;;;;;;4450262;32;20245;-56
2021/12/12 07:31:25;;;;;;;5.07;3.90;;;;;;;;;;4449667;32;20228;-57
2021/12/12 07:33:54;;;;;;;7.23;3.70;;;;;;;;;;4448644;32;20231;-57
2021/12/12 07:36:20;;;;;;;11.37;3.67;;;;;;;;;;4462185;32;20275;-57
2021/12/12 07:38:53;;;;;;;6.03;3.50;;;;;;;;;;4462801;32;20750;-56
2021/12/12 07:41:21;;;;;;;4.67;3.80;;;;;;;;;;4461224;32;20244;-57
2021/12/12 07:43:47;;;;;;;11.07;5.23;;;;;;;;;;4461780;32;20232;-57
2021/12/12 07:46:13;;;;;;;17.00;8.77;;;;;;;;;;4464820;32;20270;-58
2021/12/12 07:48:39;;;;;;;16.50;10.83;;;;;;;;;;4465393;32;20287;-57
2021/12/12 07:51:06;;;;;;;23.77;13.30;;;;;;;;;;4464698;32;20232;-58
2021/12/12 07:53:32;;;;;;;22.50;12.93;;;;;;;;;;4464837;32;20286;-57
2021/12/12 07:55:58;;;;;;;17.10;10.37;;;;;;;;;;4464570;32;20223;-57
2021/12/12 07:58:25;;;;;;;36.53;9.17;;;;;;;;;;4464506;32;20278;-56
2021/12/12 08:00:53;;;;;;;16.50;10.83;;;;;;;;;;4464560;32;20599;-57
2021/12/12 08:03:26;;;;;;;53.30;23.40;;;;;;;;;;4464318;32;20735;-56
2021/12/12 08:05:51;;;;;;;31.77;15.83;;;;;;;;;;4464398;32;20319;-56
2021/12/12 08:08:18;;;;;;;32.20;19.13;;;;;;;;;;4464249;32;20725;-56
2021/12/12 08:10:46;;;;;;;24.47;15.37;;;;;;;;;;4464662;32;20268;-58
2021/12/12 08:13:14;;;;;;;26.67;14.73;;;;;;;;;;4462563;32;20717;-58
2021/12/12 08:15:41;;;;;;;23.57;14.70;;;;;;;;;;4464724;32;20264;-59
2021/12/12 08:18:09;;;;;;;17.37;10.17;;;;;;;;;;4462267;32;20270;-58
2021/12/12 08:20:36;;;;;;;27.60;14.07;;;;;;;;;;4462481;32;20263;-58
2021/12/12 08:23:03;;;;;;;31.83;15.67;;;;;;;;;;4461182;32;20357;-56
2021/12/12 08:25:29;;;;;;;30.93;17.13;;;;;;;;;;4461124;32;20247;-57
2021/12/12 08:28:00;;;;;;;28.90;16.67;;;;;;;;;;4461634;32;20304;-57
2021/12/12 08:30:26;;;;;;;26.93;16.40;;;;;;;;;;4461081;32;20231;-59
2021/12/12 08:32:52;;;;;;;16.83;9.17;;;;;;;;;;4462131;32;20782;-55
2021/12/12 08:35:20;;;;;;;15.07;8.23;;;;;;;;;;4463262;32;20711;-58
2021/12/12 08:37:47;;;;;;;15.17;10.33;;;;;;;;;;4464389;32;20220;-58
2021/12/12 08:40:18;;;;;;;18.90;10.97;;;;;;;;;;4461963;32;20394;-58
2021/12/12 08:42:45;;;;;;;15.33;9.53;;;;;;;;;;4463779;32;20281;-58
2021/12/12 08:45:14;;;;;;;14.97;8.83;;;;;;;;;;4463926;32;20679;-56
2021/12/12 08:47:40;;;;;;;25.17;10.50;;;;;;;;;;4462764;32;20313;-57
2021/12/12 08:50:10;;;;;;;12.43;8.00;;;;;;;;;;4464141;32;20227;-58
2021/12/12 08:52:39;;;;;;;5.83;3.73;;;;;;;;;;4463899;32;20604;-57
2021/12/12 08:55:14;;;;;;;7.73;4.13;;;;;;;;;;4463745;32;20637;-58
2021/12/12 08:58:24;;;;;;;12.90;6.40;;;;;;;;;;4464331;32;20692;-57
2021/12/12 09:00:37;;;;;;;6.03;4.20;;;;;;;;;;4459709;32;20341;-57
2021/12/12 09:03:04;;;;;;;12.30;4.23;;;;;;;;;;4463457;32;20307;-57
2021/12/12 09:05:33;;;;;;;7.87;4.40;;;;;;;;;;4464009;32;20665;-57
2021/12/12 09:08:08;;;;;;;7.37;4.23;;;;;;;;;;4463462;32;20229;-58
2021/12/12 09:10:40;;;;;;;7.67;4.93;;;;;;;;;;4463864;32;20230;-57
2021/12/12 09:13:17;;;;;;;6.13;3.50;;;;;;;;;;4463587;32;20200;-57
2021/12/12 09:16:18;;;;;;;5.67;4.00;;;;;;;;;;4464093;32;20243;-58
2021/12/12 09:19:09;;;;;;;7.03;4.13;;;;;;;;;;4445999;32;20239;-57
2021/12/12 09:22:00;;;;;;;7.83;5.23;;;;;;;;;;4456581;32;20300;-57
2021/12/12 09:24:44;;;;;;;12.97;7.13;;;;;;;;;;4462374;32;20227;-58
2021/12/12 09:27:14;;;;;;;6.00;4.00;;;;;;;;;;4463324;32;20271;-57
2021/12/12 09:29:55;;;;;;;7.70;4.90;;;;;;;;;;4463508;32;20390;-57
2021/12/12 09:32:50;;;;;;;6.40;4.43;;;;;;;;;;4463242;32;20259;-58
2021/12/12 09:35:25;;;;;;;13.10;6.30;;;;;;;;;;4463310;32;20237;-57
2021/12/12 09:38:35;;;;;;;11.47;6.20;;;;;;;;;;4462089;32;20235;-57
2021/12/12 09:41:20;;;;;;;11.47;6.77;;;;;;;;;;4461977;32;20232;-59
2021/12/12 09:44:19;;;;;;;7.83;4.13;;;;;;;;;;4463144;32;20247;-57
2021/12/12 09:47:30;;;;;;;11.90;6.13;;;;;;;;;;4463234;32;20258;-57
2021/12/12 09:53:23;;;;;;;6.73;3.90;;;;;;;;;;4465084;32;20638;-58
2021/12/12 09:56:27;;;;;;;5.17;3.37;;;;;;;;;;4464964;32;20275;-57
2021/12/12 09:59:06;;;;;;;6.50;4.50;;;;;;;;;;4466251;32;20418;-57
2021/12/12 10:01:48;;;;;;;5.23;3.73;;;;;;;;;;4464992;32;20247;-55
2021/12/12 10:04:38;;;;;;;7.90;4.07;;;;;;;;;;4466501;32;20212;-58
2021/12/12 10:07:06;;;;;;;9.67;4.67;;;;;;;;;;4465432;32;20229;-56
2021/12/12 10:10:00;;;;;;;7.27;4.03;;;;;;;;;;4465474;32;20351;-59
2021/12/12 10:12:29;;;;;;;6.57;4.10;;;;;;;;;;4461836;32;20347;-57
2021/12/12 10:14:58;;;;;;;5.13;3.70;;;;;;;;;;4463663;32;20204;-57
2021/12/12 10:17:44;;;;;;;4.37;3.20;;;;;;;;;;4463472;32;20285;-57
2021/12/12 10:20:20;;;;;;;7.80;2.90;;;;;;;;;;4464550;32;20208;-56
2021/12/12 10:23:09;;;;;;;5.03;2.97;;;;;;;;;;4465267;32;20261;-56
2021/12/12 10:25:41;;;;;;;5.60;3.23;;;;;;;;;;4464705;32;20727;-57
2021/12/12 10:28:19;;;;;;;3.47;2.70;;;;;;;;;;4463663;32;20211;-57
2021/12/12 10:30:49;;;;;;;4.77;3.40;;;;;;;;;;4463694;32;20195;-57
2021/12/12 10:33:33;;;;;;;7.53;3.43;;;;;;;;;;4463535;32;20499;-56
2021/12/12 10:36:04;;;;;;;5.17;3.47;;;;;;;;;;4449186;32;20577;-57
2021/12/12 10:38:55;;;;;;;11.23;6.57;;;;;;;;;;4449720;32;20385;-57
2021/12/12 10:41:28;;;;;;;12.83;6.77;;;;;;;;;;4463871;32;20236;-57
2021/12/12 10:43:56;;;;;;;19.07;10.97;;;;;;;;;;4464089;32;20212;-57
2021/12/12 10:46:32;;;;;;;22.03;8.40;;;;;;;;;;4463415;32;20299;-57
2021/12/12 10:49:03;;;;;;;14.17;8.47;;;;;;;;;;4465506;32;20616;-57
2021/12/12 10:51:39;;;;;;;10.27;6.00;;;;;;;;;;4465611;32;20270;-57
2021/12/12 10:54:14;;;;;;;8.23;4.67;;;;;;;;;;4465786;32;20317;-57
2021/12/12 10:56:56;;;;;;;8.27;5.00;;;;;;;;;;4465665;32;20220;-57
2021/12/12 10:59:26;;;;;;;8.80;4.17;;;;;;;;;;4465459;32;20265;-57
2021/12/12 11:02:08;;;;;;;11.53;5.43;;;;;;;;;;4465451;32;20247;-57
2021/12/12 11:04:39;;;;;;;10.37;5.27;;;;;;;;;;4463174;32;20672;-56
2021/12/12 11:07:11;;;;;;;7.23;4.80;;;;;;;;;;4465434;32;20296;-57
2021/12/12 11:09:56;;;;;;;13.87;5.30;;;;;;;;;;4465442;32;20218;-56
2021/12/12 11:12:49;;;;;;;10.00;5.20;;;;;;;;;;4464912;32;20239;-58
2021/12/12 11:15:27;;;;;;;169.03;91.63;;;;;;;;;;4465493;32;20228;-57
2021/12/12 11:18:00;;;;;;;29.10;21.97;;;;;;;;;;4465429;32;20298;-57
2021/12/12 11:20:34;;;;;;;6.43;4.87;;;;;;;;;;4465318;32;20197;-56
2021/12/12 11:23:08;;;;;;;75.40;36.33;;;;;;;;;;4464943;32;20363;-57
2021/12/12 11:25:40;;;;;;;24.10;12.53;;;;;;;;;;4463830;32;20648;-57
2021/12/12 11:28:13;;;;;;;39.90;19.17;;;;;;;;;;4465337;32;20273;-57
2021/12/12 11:30:47;;;;;;;16.50;10.70;;;;;;;;;;4465049;32;20205;-57
2021/12/12 11:33:15;;;;;;;41.00;23.77;;;;;;;;;;4464858;32;20215;-58
2021/12/12 11:35:43;;;;;;;140.60;69.13;;;;;;;;;;4465002;32;20267;-57
2021/12/12 11:38:13;;;;;;;32.67;16.20;;;;;;;;;;4465016;32;20275;-57
2021/12/12 11:40:53;;;;;;;112.40;53.50;;;;;;;;;;4464718;32;20617;-56
2021/12/12 11:43:32;;;;;;;31.90;15.50;;;;;;;;;;4464557;32;20211;-57
2021/12/12 11:46:03;;;;;;;11.30;6.13;;;;;;;;;;4464874;32;20632;-57
2021/12/12 11:48:47;;;;;;;32.67;19.50;;;;;;;;;;4464760;32;20694;-58
2021/12/12 11:51:17;;;;;;;19.13;9.67;;;;;;;;;;4464487;32;20236;-57
2021/12/12 11:53:50;;;;;;;12.27;7.13;;;;;;;;;;4460581;32;20216;-58
2021/12/12 11:56:32;;;;;;;26.10;14.33;;;;;;;;;;4463062;32;20228;-57
2021/12/12 11:59:38;;;;;;;46.07;19.93;;;;;;;;;;4464610;32;20215;-56
2021/12/12 12:02:12;;;;;;;35.63;16.20;;;;;;;;;;4463543;32;20644;-56
2021/12/12 12:05:02;;;;;;;62.27;23.93;;;;;;;;;;4463045;32;20260;-56
2021/12/12 12:07:40;;;;;;;40.10;19.40;;;;;;;;;;4464590;32;20258;-57
2021/12/12 12:10:23;;;;;;;47.53;19.20;;;;;;;;;;4456679;32;20247;-57
2021/12/12 12:13:04;;;;;;;14.13;7.17;;;;;;;;;;4448694;32;20688;-57
2021/12/12 12:15:49;;;;;;;152.70;54.77;;;;;;;;;;4448696;32;20208;-56
2021/12/12 12:18:38;;;;;;;451.90;199.30;;;;;;;;;;4448479;32;20208;-57
2021/12/12 12:21:13;;;;;;;36.40;18.87;;;;;;;;;;4448927;32;20536;-57
2021/12/12 12:24:17;;;;;;;69.60;30.00;;;;;;;;;;4448589;32;20212;-56
2021/12/12 12:27:02;;;;;;;15.13;7.53;;;;;;;;;;4452312;32;20303;-57
2021/12/12 12:29:28;;;;;;;16.93;9.23;;;;;;;;;;4462843;32;20250;-57
2021/12/12 12:32:31;;;;;;;11.77;5.30;;;;;;;;;;4463872;32;20224;-57
2021/12/12 12:35:24;;;;;;;8.03;3.93;;;;;;;;;;4464052;32;20208;-56
2021/12/12 12:38:27;;;;;;;10.90;6.67;;;;;;;;;;4464341;32;20235;-57
2021/12/12 12:41:43;;;;;;;32.13;16.23;;;;;;;;;;4464110;32;20212;-57
2021/12/12 12:44:46;;;;;;;24.60;14.17;;;;;;;;;;4428724;32;20299;-57
2021/12/12 12:47:49;;;;;;;41.37;21.00;;;;;;;;;;4463492;32;20318;-57
2021/12/12 12:50:39;;;;;;;13.60;7.70;;;;;;;;;;4463974;32;20212;-56
2021/12/12 12:53:46;;;;;;;15.17;8.13;;;;;;;;;;4463634;32;20205;-57
2021/12/12 12:56:24;;;;;;;26.60;14.60;;;;;;;;;;4441761;32;20318;-57
2021/12/12 12:59:19;;;;;;;16.40;9.43;;;;;;;;;;4463882;32;20260;-55
2021/12/12 13:02:04;;;;;;;48.93;24.90;;;;;;;;;;4453146;32;20669;-56
2021/12/12 13:04:47;;;;;;;53.03;23.90;;;;;;;;;;4448167;32;20220;-58
2021/12/12 13:07:23;;;;;;;32.80;15.03;;;;;;;;;;4447879;32;20291;-56
2021/12/12 13:10:17;;;;;;;31.60;14.60;;;;;;;;;;4448186;32;20700;-56
2021/12/12 13:12:57;;;;;;;29.47;15.73;;;;;;;;;;4446915;32;20609;-58
2021/12/12 13:15:44;;;;;;;21.77;12.53;;;;;;;;;;4448166;32;20227;-57
2021/12/12 13:18:47;;;;;;;18.07;10.13;;;;;;;;;;4447788;32;20205;-57
2021/12/12 13:21:38;;;;;;;16.13;11.83;;;;;;;;;;4447971;32;20446;-56
2021/12/12 13:24:16;;;;;;;24.23;11.93;;;;;;;;;;4441235;32;20220;-56
2021/12/12 13:27:12;;;;;;;20.60;11.47;;;;;;;;;;4447454;32;20225;-56
2021/12/12 13:30:13;;;;;;;18.07;7.80;;;;;;;;;;4459641;32;20440;-57
2021/12/12 13:32:56;;;;;;;13.57;8.93;;;;;;;;;;4447641;32;20232;-57
2021/12/12 13:35:57;;;;;;;23.87;13.93;;;;;;;;;;4446675;32;20359;-56
2021/12/12 13:38:48;;;;;;;22.60;12.93;;;;;;;;;;4445950;32;20778;-56
2021/12/12 13:41:32;;;;;;;32.33;17.07;;;;;;;;;;4447489;32;20288;-55
2021/12/12 13:44:12;;;;;;;14.90;6.90;;;;;;;;;;4448134;32;20217;-57
2021/12/12 13:46:46;;;;;;;14.10;7.03;;;;;;;;;;4447771;32;20767;-57
2021/12/12 13:49:21;;;;;;;18.67;9.03;;;;;;;;;;4447527;32;20323;-57
2021/12/12 13:52:15;;;;;;;23.83;12.03;;;;;;;;;;4447528;32;20587;-57
2021/12/12 13:55:01;;;;;;;32.10;17.83;;;;;;;;;;4444533;32;20332;-56
2021/12/12 13:57:39;;;;;;;42.27;21.23;;;;;;;;;;4453366;32;20228;-56
2021/12/12 14:00:08;;;;;;;37.83;19.57;;;;;;;;;;4462793;32;20276;-57
2021/12/12 14:02:35;;;;;;;26.23;12.60;;;;;;;;;;4446955;32;20297;-57
2021/12/12 14:05:03;;;;;;;32.20;16.43;;;;;;;;;;4447142;32;20209;-57
2021/12/12 14:07:33;;;;;;;22.57;13.63;;;;;;;;;;4446888;32;20247;-56
2021/12/12 14:10:04;;;;;;;39.27;18.87;;;;;;;;;;4447129;32;20243;-55
2021/12/12 14:12:34;;;;;;;40.23;19.13;;;;;;;;;;4447564;32;20299;-57
2021/12/12 14:15:05;;;;;;;53.50;28.10;;;;;;;;;;4446027;32;20289;-57
2021/12/12 14:18:01;;;;;;;48.93;22.43;;;;;;;;;;4447121;32;20250;-56
2021/12/12 14:20:33;;;;;;;35.83;19.63;;;;;;;;;;4447691;32;20265;-57
2021/12/12 14:23:00;;;;;;;40.37;25.67;;;;;;;;;;4446854;32;20233;-57
2021/12/12 14:25:27;;;;;;;34.87;20.17;;;;;;;;;;4447432;32;20279;-57
2021/12/12 14:27:56;;;;;;;23.40;13.53;;;;;;;;;;4447000;32;20299;-56
2021/12/12 14:30:26;;;;;;;19.63;11.83;;;;;;;;;;4447286;32;20330;-58
2021/12/12 14:33:04;;;;;;;9.07;6.30;;;;;;;;;;4447272;32;20220;-56
2021/12/12 14:35:46;;;;;;;10.67;6.80;;;;;;;;;;4458516;32;20259;-58
2021/12/12 14:38:14;;;;;;;25.73;13.83;;;;;;;;;;4462224;32;20694;-57
2021/12/12 14:40:50;;;;;;;24.87;14.50;;;;;;;;;;4464676;32;20204;-56
2021/12/12 14:43:36;;;;;;;40.07;19.67;;;;;;;;;;4465104;32;20223;-56
2021/12/12 14:46:11;;;;;;;48.27;27.37;;;;;;;;;;4464977;32;20256;-57
2021/12/12 14:48:44;;;;;;;48.43;25.60;;;;;;;;;;4465460;32;20218;-57
2021/12/12 14:51:13;;;;;;;54.77;28.70;;;;;;;;;;4465065;32;20262;-56
2021/12/12 14:53:47;;;;;;;52.03;28.00;;;;;;;;;;4458059;32;20235;-57
2021/12/12 14:56:17;;;;;;;42.33;22.27;;;;;;;;;;4449219;32;20342;-57
2021/12/12 14:58:49;;;;;;;27.50;15.13;;;;;;;;;;4449664;32;20314;-56
2021/12/12 15:01:28;;;;;;;19.37;10.37;;;;;;;;;;4455650;32;20264;-57
2021/12/12 15:03:59;;;;;;;17.80;9.00;;;;;;;;;;4465336;32;20226;-57
2021/12/12 15:06:41;;;;;;;9.20;5.23;;;;;;;;;;4463623;32;20581;-57
2021/12/12 15:09:21;;;;;;;27.53;14.03;;;;;;;;;;4464837;32;20294;-56
2021/12/12 15:12:15;;;;;;;52.60;23.93;;;;;;;;;;4463678;32;20250;-57
2021/12/12 15:14:49;;;;;;;93.93;36.93;;;;;;;;;;4439845;32;20270;-57
2021/12/12 15:17:17;;;;;;;25.90;12.47;;;;;;;;;;4462310;32;20683;-58
2021/12/12 15:19:50;;;;;;;23.70;11.47;;;;;;;;;;4462221;32;20379;-57
2021/12/12 15:22:21;;;;;;;13.03;5.80;;;;;;;;;;4461072;32;20763;-56
2021/12/12 15:24:57;;;;;;;11.33;6.13;;;;;;;;;;4461574;32;20217;-57
2021/12/12 15:27:36;;;;;;;8.23;3.87;;;;;;;;;;4462872;32;20256;-56
2021/12/12 15:30:07;;;;;;;12.80;4.70;;;;;;;;;;4465404;32;20222;-57